createdAt,value
2022-08-03T00:01:20.152Z,30.20
2022-08-03T00:04:06.067Z,30.10
2022-08-03T00:06:51.848Z,30.10
2022-08-03T00:09:38.523Z,30.20
2022-08-03T00:12:24.241Z,30.20
2022-08-03T00:15:14.240Z,30.10
2022-08-03T00:18:02.830Z,30.10
2022-08-03T00:20:49.074Z,30.00
2022-08-03T00:23:51.652Z,30.00
2022-08-03T00:26:38.420Z,30.00
2022-08-03T00:29:24.478Z,29.90
2022-08-03T00:32:11.035Z,29.90
2022-08-03T00:34:59.037Z,29.90
2022-08-03T00:37:45.188Z,29.80
2022-08-03T00:40:31.007Z,29.80
2022-08-03T00:43:17.328Z,29.80
2022-08-03T00:46:03.121Z,29.70
2022-08-03T00:48:52.724Z,29.70
2022-08-03T00:51:39.834Z,29.70
2022-08-03T00:54:26.155Z,29.70
2022-08-03T00:57:11.771Z,29.60
2022-08-03T00:59:57.939Z,29.60
2022-08-03T01:02:44.353Z,29.50
2022-08-03T01:05:32.383Z,29.40
2022-08-03T01:08:53.958Z,29.40
2022-08-03T01:12:01.205Z,29.40
2022-08-03T01:15:09.783Z,29.20
2022-08-03T01:17:59.679Z,29.20
2022-08-03T01:20:49.281Z,29.20
2022-08-03T01:24:03.627Z,29.20
2022-08-03T01:27:12.905Z,29.20
2022-08-03T01:30:17.061Z,29.10
2022-08-03T01:33:07.776Z,29.10
2022-08-03T01:36:13.278Z,29.00
2022-08-03T01:39:02.108Z,29.00
2022-08-03T01:42:00.004Z,29.00
2022-08-03T01:44:48.818Z,29.00
2022-08-03T01:47:35.995Z,29.00
2022-08-03T01:50:27.395Z,29.00
2022-08-03T01:53:17.086Z,28.90
2022-08-03T01:56:03.913Z,28.90
2022-08-03T01:58:51.369Z,28.80
2022-08-03T02:02:29.117Z,28.80
2022-08-03T02:04:46.377Z,28.90
2022-08-03T02:07:34.512Z,28.80
2022-08-03T02:10:34.361Z,28.70
2022-08-03T02:13:22.126Z,28.70
2022-08-03T02:16:09.661Z,28.50
2022-08-03T02:18:57.891Z,28.40
2022-08-03T02:21:56.286Z,28.30
2022-08-03T02:24:49.330Z,28.40
2022-08-03T02:27:43.691Z,28.20
2022-08-03T02:30:39.246Z,28.00
2022-08-03T02:33:33.080Z,28.00
2022-08-03T02:36:29.436Z,27.90
2022-08-03T02:39:20.620Z,27.90
2022-08-03T02:42:12.885Z,27.80
2022-08-03T02:45:02.578Z,27.70
2022-08-03T02:47:53.509Z,27.60
2022-08-03T02:50:42.166Z,27.50
2022-08-03T02:53:28.621Z,27.50
2022-08-03T02:56:16.302Z,27.50
2022-08-03T02:59:03.487Z,27.40
2022-08-03T03:01:49.904Z,27.40
2022-08-03T03:04:36.353Z,27.50
2022-08-03T03:07:22.544Z,27.40
2022-08-03T03:10:10.387Z,27.40
2022-08-03T03:12:58.361Z,27.40
2022-08-03T03:15:47.105Z,27.40
2022-08-03T03:18:35.296Z,27.50
2022-08-03T03:21:22.147Z,27.60
2022-08-03T03:24:09.571Z,27.70
2022-08-03T03:26:57.022Z,27.70
2022-08-03T03:29:43.785Z,27.70
2022-08-03T03:32:30.509Z,27.70
2022-08-03T03:35:17.216Z,27.70
2022-08-03T03:38:03.483Z,27.70
2022-08-03T03:40:50.023Z,27.70
2022-08-03T03:43:36.116Z,27.60
2022-08-03T03:46:22.865Z,27.60
2022-08-03T03:49:09.413Z,27.60
2022-08-03T03:51:55.980Z,27.60
2022-08-03T03:54:44.118Z,27.60
2022-08-03T03:57:30.378Z,27.60
2022-08-03T04:00:18.146Z,27.60
2022-08-03T04:03:03.830Z,27.60
2022-08-03T04:06:08.167Z,27.60
2022-08-03T04:09:12.529Z,27.60
2022-08-03T04:12:02.153Z,27.60
2022-08-03T04:14:49.476Z,27.60
2022-08-03T04:17:36.695Z,27.60
2022-08-03T04:20:24.537Z,27.50
2022-08-03T04:23:12.774Z,27.50
2022-08-03T04:26:03.510Z,27.60
2022-08-03T04:28:51.351Z,27.60
2022-08-03T04:31:39.923Z,27.60
2022-08-03T04:34:26.168Z,27.50
2022-08-03T04:37:34.497Z,27.60
2022-08-03T04:40:34.570Z,27.60
2022-08-03T04:43:22.645Z,27.50
2022-08-03T04:46:09.955Z,27.50
2022-08-03T04:48:57.690Z,27.60
2022-08-03T04:51:45.046Z,27.50
2022-08-03T04:54:31.487Z,27.60
2022-08-03T04:57:22.822Z,27.60
2022-08-03T05:00:10.105Z,27.60
2022-08-03T05:02:55.998Z,27.70
2022-08-03T05:05:50.584Z,27.70
2022-08-03T05:08:46.047Z,27.60
2022-08-03T05:11:33.046Z,27.70
2022-08-03T05:14:18.812Z,27.70
2022-08-03T05:17:13.824Z,27.70
2022-08-03T05:20:01.104Z,27.80
2022-08-03T05:22:47.531Z,27.70
2022-08-03T05:25:33.729Z,27.80
2022-08-03T05:28:19.822Z,27.70
2022-08-03T05:31:06.352Z,27.80
2022-08-03T05:33:52.636Z,27.80
2022-08-03T05:36:39.810Z,27.80
2022-08-03T05:39:25.304Z,27.80
2022-08-03T05:42:11.577Z,27.80
2022-08-03T05:44:57.893Z,27.80
2022-08-03T05:47:45.186Z,27.90
2022-08-03T05:50:31.753Z,27.90
2022-08-03T05:53:18.006Z,27.90
2022-08-03T05:56:14.220Z,27.90
2022-08-03T05:59:16.334Z,27.90
2022-08-03T06:02:07.046Z,28.00
2022-08-03T06:04:52.991Z,28.00
2022-08-03T06:07:39.224Z,28.00
2022-08-03T06:10:37.355Z,28.00
2022-08-03T06:13:24.434Z,28.00
2022-08-03T06:16:10.306Z,28.10
2022-08-03T06:18:56.638Z,28.00
2022-08-03T06:21:43.118Z,28.10
2022-08-03T06:24:31.418Z,28.10
2022-08-03T06:27:17.386Z,28.10
2022-08-03T06:30:03.821Z,28.20
2022-08-03T06:32:52.136Z,28.30
2022-08-03T06:35:38.799Z,28.20
2022-08-03T06:38:29.229Z,28.30
2022-08-03T06:41:15.666Z,28.40
2022-08-03T06:44:03.465Z,28.40
2022-08-03T06:46:51.313Z,28.40
2022-08-03T06:49:38.386Z,28.50
2022-08-03T06:52:38.494Z,28.50
2022-08-03T06:55:24.303Z,28.50
2022-08-03T06:58:09.752Z,28.50
2022-08-03T07:00:56.181Z,28.60
2022-08-03T07:03:52.293Z,28.60
2022-08-03T07:06:39.185Z,28.60
2022-08-03T07:09:26.433Z,28.70
2022-08-03T07:12:12.269Z,28.70
2022-08-03T07:15:02.550Z,28.80
2022-08-03T07:17:50.103Z,28.70
2022-08-03T07:20:35.944Z,28.80
2022-08-03T07:23:21.271Z,28.80
2022-08-03T07:26:06.724Z,28.80
2022-08-03T07:28:53.395Z,28.80
2022-08-03T07:31:40.062Z,28.80
2022-08-03T07:34:25.625Z,28.90
2022-08-03T07:37:11.380Z,29.00
2022-08-03T07:39:58.463Z,29.00
2022-08-03T07:42:44.844Z,29.00
2022-08-03T07:45:31.897Z,29.10
2022-08-03T07:48:17.590Z,29.00
2022-08-03T07:51:05.684Z,29.10
2022-08-03T07:53:52.928Z,29.10
2022-08-03T07:56:39.033Z,29.20
2022-08-03T07:59:25.281Z,29.30
2022-08-03T08:02:11.788Z,29.30
2022-08-03T08:05:00.047Z,29.30
2022-08-03T08:07:51.620Z,29.40
2022-08-03T08:10:38.314Z,29.40
2022-08-03T08:13:24.779Z,29.40
2022-08-03T08:16:10.660Z,29.40
2022-08-03T08:18:56.630Z,29.50
2022-08-03T08:21:54.055Z,29.50
2022-08-03T08:24:49.217Z,29.50
2022-08-03T08:28:30.486Z,29.60
2022-08-03T08:30:56.717Z,29.50
2022-08-03T08:34:03.147Z,29.60
2022-08-03T08:36:48.464Z,29.60
2022-08-03T08:39:34.516Z,29.60
2022-08-03T08:42:20.416Z,29.60
2022-08-03T08:45:08.711Z,29.70
2022-08-03T08:48:01.666Z,29.80
2022-08-03T08:50:53.575Z,29.80
2022-08-03T08:53:43.962Z,29.80
2022-08-03T08:56:32.599Z,29.80
2022-08-03T08:59:19.381Z,29.90
2022-08-03T09:02:05.814Z,30.00
2022-08-03T09:04:53.140Z,30.00
2022-08-03T09:07:39.095Z,30.00
2022-08-03T09:10:25.043Z,30.00
2022-08-03T09:13:10.880Z,30.00
2022-08-03T09:16:13.352Z,30.00
2022-08-03T09:19:15.202Z,30.10
2022-08-03T09:22:10.835Z,30.10
2022-08-03T09:25:22.810Z,30.20
2022-08-03T09:28:06.500Z,30.20
2022-08-03T09:30:59.694Z,30.10
2022-08-03T09:33:48.958Z,30.10
2022-08-03T09:36:39.275Z,30.10
2022-08-03T09:39:41.973Z,30.30
2022-08-03T09:42:27.965Z,30.30
2022-08-03T09:45:26.966Z,30.30
2022-08-03T09:48:27.341Z,30.30
2022-08-03T09:52:29.512Z,30.40
2022-08-03T09:54:29.370Z,30.40
2022-08-03T09:57:26.541Z,30.50
2022-08-03T10:00:14.740Z,30.50
2022-08-03T10:03:05.858Z,30.50
2022-08-03T10:05:54.806Z,30.40
2022-08-03T10:08:43.703Z,30.50
2022-08-03T10:11:31.350Z,30.50
2022-08-03T10:14:20.641Z,30.60
2022-08-03T10:17:07.223Z,30.70
2022-08-03T10:19:53.515Z,30.70
2022-08-03T10:22:41.411Z,30.70
2022-08-03T10:25:32.993Z,30.70
2022-08-03T10:28:21.391Z,30.70
2022-08-03T10:31:08.508Z,30.70
2022-08-03T10:33:58.055Z,30.60
2022-08-03T10:36:45.931Z,30.80
2022-08-03T10:39:32.496Z,30.70
2022-08-03T10:42:18.388Z,30.80
2022-08-03T10:45:07.528Z,30.80
2022-08-03T10:47:56.043Z,30.90
2022-08-03T10:50:43.503Z,31.00
2022-08-03T10:53:39.179Z,31.00
2022-08-03T10:56:52.283Z,31.00
2022-08-03T10:59:48.462Z,31.00
2022-08-03T11:03:03.615Z,31.10
2022-08-03T11:05:49.681Z,31.20
2022-08-03T11:08:35.640Z,31.20
2022-08-03T11:11:23.587Z,31.30
2022-08-03T11:14:09.142Z,31.20
2022-08-03T11:17:08.333Z,31.20
2022-08-03T11:20:01.299Z,31.30
2022-08-03T11:22:54.531Z,31.40
2022-08-03T11:26:22.620Z,31.50
2022-08-03T11:29:28.977Z,31.60
2022-08-03T11:32:37.655Z,31.60
2022-08-03T11:35:45.464Z,31.60
2022-08-03T11:38:31.002Z,31.70
2022-08-03T11:41:42.948Z,31.70
2022-08-03T11:44:40.897Z,31.80
2022-08-03T11:47:30.695Z,31.90
2022-08-03T11:50:17.176Z,32.00
2022-08-03T11:53:02.881Z,31.90
2022-08-03T11:55:49.191Z,32.10
2022-08-03T11:59:10.607Z,32.10
2022-08-03T12:01:42.245Z,32.10
2022-08-03T12:04:28.052Z,32.20
2022-08-03T12:07:13.484Z,32.40
2022-08-03T12:10:18.974Z,32.50
2022-08-03T12:14:10.683Z,32.50
2022-08-03T12:16:25.155Z,32.60
2022-08-03T12:19:11.527Z,32.60
2022-08-03T12:21:57.663Z,32.80
2022-08-03T12:24:46.714Z,32.90
2022-08-03T12:27:33.488Z,33.00
2022-08-03T12:30:20.764Z,33.20
2022-08-03T12:33:21.534Z,33.30
2022-08-03T12:36:09.446Z,33.50
2022-08-03T12:38:57.864Z,33.60
2022-08-03T12:41:44.099Z,33.80
2022-08-03T12:44:35.121Z,33.80
2022-08-03T12:47:21.302Z,34.00
2022-08-03T12:50:07.851Z,34.20
2022-08-03T12:52:54.614Z,34.30
2022-08-03T12:55:57.802Z,34.40
2022-08-03T12:58:47.812Z,34.80
2022-08-03T13:01:37.867Z,35.10
2022-08-03T13:04:40.571Z,35.50
2022-08-03T13:07:26.929Z,36.10
2022-08-03T13:10:27.192Z,37.50
2022-08-03T13:13:13.080Z,40.00
2022-08-03T13:15:59.275Z,40.70
2022-08-03T13:18:48.054Z,40.20
2022-08-03T13:21:34.175Z,39.40
2022-08-03T13:24:39.504Z,39.30
2022-08-03T13:28:04.598Z,39.50
2022-08-03T13:30:32.506Z,41.70
2022-08-03T13:33:18.742Z,44.50
2022-08-03T13:36:05.133Z,45.70
2022-08-03T13:38:51.482Z,46.20
2022-08-03T13:41:38.068Z,46.00
2022-08-03T13:44:29.355Z,46.70
2022-08-03T13:47:16.265Z,46.70
2022-08-03T13:50:03.083Z,45.80
2022-08-03T13:52:50.184Z,47.50
2022-08-03T13:55:36.365Z,48.50
2022-08-03T13:58:22.436Z,49.40
2022-08-03T14:01:09.826Z,50.30
2022-08-03T14:03:56.560Z,50.60
2022-08-03T14:06:45.917Z,51.30
2022-08-03T14:09:31.962Z,51.40
2022-08-03T14:12:18.145Z,49.20
2022-08-03T14:15:04.407Z,46.80
2022-08-03T14:17:50.315Z,46.90
2022-08-03T14:20:49.016Z,49.30
2022-08-03T14:23:38.099Z,49.30
2022-08-03T14:26:24.479Z,48.10
2022-08-03T14:29:10.587Z,48.90
2022-08-03T14:32:11.956Z,50.40
2022-08-03T14:34:58.414Z,52.20
2022-08-03T14:37:44.067Z,51.20
2022-08-03T14:40:30.217Z,51.30
2022-08-03T14:43:21.172Z,49.50
2022-08-03T14:46:07.081Z,49.30
2022-08-03T14:50:28.728Z,51.20
2022-08-03T14:51:59.364Z,52.90
2022-08-03T14:54:46.320Z,53.90
2022-08-03T14:57:32.452Z,53.90
2022-08-03T15:00:17.969Z,54.80
2022-08-03T15:03:05.290Z,55.00
2022-08-03T15:05:56.873Z,55.50
2022-08-03T15:08:51.433Z,55.40
2022-08-03T15:11:49.372Z,54.30
2022-08-03T15:14:35.187Z,52.10
2022-08-03T15:17:23.987Z,54.00
2022-08-03T15:20:26.594Z,55.30
2022-08-03T15:23:17.855Z,56.00
2022-08-03T15:26:30.790Z,56.40
2022-08-03T15:29:10.107Z,56.50
2022-08-03T15:32:15.780Z,56.40
2022-08-03T15:35:02.510Z,55.80
2022-08-03T15:37:48.230Z,55.00
2022-08-03T15:40:34.393Z,52.20
2022-08-03T15:43:21.561Z,53.30
2022-08-03T15:49:14.513Z,55.70
2022-08-03T15:52:01.165Z,56.00
2022-08-03T15:54:47.036Z,55.70
2022-08-03T15:57:33.544Z,56.40
2022-08-03T16:00:40.008Z,56.30
2022-08-03T16:03:28.318Z,56.60
2022-08-03T16:06:14.180Z,55.00
2022-08-03T16:09:00.315Z,52.70
2022-08-03T16:11:46.561Z,53.70
2022-08-03T16:14:43.383Z,55.20
2022-08-03T16:17:37.221Z,55.90
2022-08-03T16:20:31.295Z,56.10
2022-08-03T16:23:20.619Z,56.00
2022-08-03T16:26:09.158Z,56.00
2022-08-03T16:28:55.696Z,55.90
2022-08-03T16:31:51.294Z,54.60
2022-08-03T16:34:39.327Z,53.10
2022-08-03T16:37:41.155Z,53.90
2022-08-03T16:40:32.231Z,54.20
2022-08-03T16:43:19.602Z,54.80
2022-08-03T16:46:05.752Z,55.00
2022-08-03T16:48:51.908Z,54.20
2022-08-03T16:51:50.685Z,53.70
2022-08-03T16:54:36.811Z,52.40
2022-08-03T16:57:59.263Z,51.70
2022-08-03T17:00:33.852Z,52.60
2022-08-03T17:03:24.293Z,52.50
2022-08-03T17:06:10.829Z,52.50
2022-08-03T17:08:59.850Z,52.90
2022-08-03T17:11:49.663Z,52.50
2022-08-03T17:14:35.432Z,51.30
2022-08-03T17:17:30.491Z,50.70
2022-08-03T17:20:40.441Z,51.40
2022-08-03T17:23:43.982Z,51.20
2022-08-03T17:26:33.081Z,51.60
2022-08-03T17:29:23.189Z,51.30
2022-08-03T17:32:15.049Z,49.90
2022-08-03T17:35:05.453Z,49.70
2022-08-03T17:37:58.116Z,50.20
2022-08-03T17:40:49.977Z,50.00
2022-08-03T17:44:13.454Z,49.10
2022-08-03T17:46:46.253Z,47.20
2022-08-03T17:49:39.996Z,46.30
2022-08-03T17:52:28.706Z,46.60
2022-08-03T17:55:55.230Z,47.40
2022-08-03T17:58:53.527Z,47.70
2022-08-03T18:02:03.091Z,46.60
2022-08-03T18:08:28.846Z,46.20
2022-08-03T18:11:21.790Z,45.80
2022-08-03T18:14:33.806Z,44.70
2022-08-03T18:17:58.082Z,43.90
2022-08-03T18:20:41.045Z,43.90
2022-08-03T18:23:37.341Z,43.00
2022-08-03T18:26:24.208Z,42.00
2022-08-03T18:29:12.865Z,41.40
2022-08-03T18:32:02.815Z,40.90
2022-08-03T18:34:53.496Z,40.70
2022-08-03T18:37:52.073Z,40.30
2022-08-03T18:40:38.477Z,40.00
2022-08-03T18:43:47.332Z,39.60
2022-08-03T18:47:07.534Z,39.40
2022-08-03T18:50:19.736Z,39.20
2022-08-03T18:53:21.187Z,39.00
2022-08-03T18:56:18.789Z,38.70
2022-08-03T18:59:11.561Z,38.50
2022-08-03T19:02:21.276Z,38.30
2022-08-03T19:05:09.753Z,38.00
2022-08-03T19:08:03.332Z,38.00
2022-08-03T19:11:01.108Z,37.80
2022-08-03T19:13:51.243Z,37.70
2022-08-03T19:16:42.089Z,37.60
2022-08-03T19:19:44.230Z,37.40
2022-08-03T19:22:32.589Z,37.20
2022-08-03T19:25:19.621Z,37.20
2022-08-03T19:28:07.345Z,37.00
2022-08-03T19:30:56.590Z,36.90
2022-08-03T19:33:56.192Z,36.70
2022-08-03T19:36:45.608Z,36.50
2022-08-03T19:39:31.728Z,36.40
2022-08-03T19:42:32.014Z,36.40
2022-08-03T19:48:37.684Z,36.20
2022-08-03T19:51:58.987Z,36.00
2022-08-03T19:54:53.396Z,35.90
2022-08-03T19:57:46.780Z,35.90
2022-08-03T20:00:38.440Z,35.70
2022-08-03T20:03:43.006Z,35.70
2022-08-03T20:06:29.979Z,35.60
2022-08-03T20:09:18.472Z,35.50
2022-08-03T20:12:07.778Z,35.50
2022-08-03T20:14:58.942Z,35.40
2022-08-03T20:17:57.085Z,35.30
2022-08-03T20:20:47.971Z,35.20
2022-08-03T20:23:38.274Z,35.10
2022-08-03T20:26:53.356Z,35.10
2022-08-03T20:30:06.355Z,35.00
2022-08-03T20:32:52.633Z,34.90
2022-08-03T20:35:38.578Z,34.70
2022-08-03T20:38:28.068Z,34.70
2022-08-03T20:41:18.675Z,34.70
2022-08-03T20:44:05.331Z,34.60
2022-08-03T20:47:00.295Z,34.50
2022-08-03T20:49:47.007Z,34.40
2022-08-03T20:52:33.487Z,34.40
2022-08-03T20:55:20.294Z,34.30
2022-08-03T20:58:26.327Z,34.20
2022-08-03T21:01:13.133Z,34.10
2022-08-03T21:03:59.660Z,34.00
2022-08-03T21:06:58.023Z,34.00
2022-08-03T21:12:56.493Z,46.00
2022-08-03T21:13:09.879Z,36.20
2022-08-03T21:13:13.905Z,34.00
2022-08-03T21:13:17.074Z,33.90
2022-08-03T21:16:14.128Z,33.90
2022-08-03T21:19:03.529Z,33.80
2022-08-03T21:21:50.566Z,33.90
2022-08-03T21:24:40.368Z,33.80
2022-08-03T21:27:30.756Z,33.70
2022-08-03T21:30:18.166Z,33.70
2022-08-03T21:33:07.629Z,33.60
2022-08-03T21:35:54.284Z,33.50
2022-08-03T21:38:41.219Z,33.40
2022-08-03T21:41:29.705Z,33.40
2022-08-03T21:44:17.747Z,33.30
2022-08-03T21:47:13.257Z,33.30
2022-08-03T21:50:06.602Z,33.30
2022-08-03T21:52:55.495Z,33.20
2022-08-03T21:55:46.626Z,33.20
2022-08-03T21:58:38.262Z,33.10
2022-08-03T22:01:29.184Z,33.10
2022-08-03T22:04:50.627Z,33.00
2022-08-03T22:07:29.774Z,32.80
2022-08-03T22:10:15.563Z,32.60
2022-08-03T22:13:01.268Z,32.60
2022-08-03T22:15:48.633Z,32.50
2022-08-03T22:18:42.694Z,32.60
2022-08-03T22:21:35.927Z,32.50
2022-08-03T22:24:28.572Z,32.60
2022-08-03T22:27:30.756Z,32.50
2022-08-03T22:30:19.390Z,32.50
2022-08-03T22:33:21.365Z,32.40
2022-08-03T22:36:18.773Z,32.40
2022-08-03T22:39:04.684Z,32.40
2022-08-03T22:41:51.117Z,32.40
2022-08-03T22:44:37.177Z,32.40
2022-08-03T22:47:23.682Z,32.40
2022-08-03T22:50:32.867Z,32.40
2022-08-03T22:53:22.572Z,32.40
2022-08-03T22:56:08.765Z,32.40
2022-08-03T22:58:54.781Z,32.40
2022-08-03T23:01:43.218Z,32.40
2022-08-03T23:04:32.270Z,32.30
2022-08-03T23:07:33.963Z,32.30
2022-08-03T23:10:20.664Z,32.20
2022-08-03T23:13:07.026Z,32.20
2022-08-03T23:15:56.903Z,31.90
2022-08-03T23:18:44.195Z,31.70
2022-08-03T23:21:59.977Z,31.60
2022-08-03T23:24:38.069Z,31.50
2022-08-03T23:27:24.083Z,31.30
2022-08-03T23:30:11.263Z,31.60
2022-08-03T23:32:58.083Z,31.30
2022-08-03T23:36:20.205Z,31.30
2022-08-03T23:39:09.201Z,31.20
2022-08-03T23:41:57.344Z,31.10
2022-08-03T23:44:44.728Z,31.10
2022-08-03T23:47:46.223Z,30.90
2022-08-03T23:50:47.826Z,30.90
2022-08-03T23:53:48.807Z,31.00
2022-08-03T23:57:08.237Z,30.90
